Time;durP1;ratioP1;P1;durP2;ratioP2;P2;SDS_P1;SDS_P2;PMS_P1;PMS_P2;Temp;Humidity;BMP_temperature;BMP_pressure;BME280_temperature;BME280_humidity;BME280_pressure;Samples;Min_cycle;Max_cycle;Signal;HPM_P1;HPM_P2
2021/03/28 00:00:17;;;;;;;1.85;0.50;;;;;;;9.02;65.69;101894.81;4804169;29;97897;-62
2021/03/28 00:03:01;;;;;;;1.33;0.40;;;;;;;9.01;65.86;101892.38;4792104;28;98141;-60
2021/03/28 00:05:34;;;;;;;1.60;0.52;;;;;;;9.01;66.12;101893.19;4803153;29;104605;-60
2021/03/28 00:08:21;;;;;;;1.40;0.40;;;;;;;9.04;66.33;101894.63;4803133;29;119941;-62
2021/03/28 00:10:53;;;;;;;1.95;0.50;;;;;;;8.99;65.99;101900.63;4816472;28;97967;-62
2021/03/28 00:13:28;;;;;;;1.00;0.40;;;;;;;9.02;65.85;101902.88;4827641;28;98654;-60
2021/03/28 00:15:56;;;;;;;1.88;0.50;;;;;;;8.98;66.00;101903.56;4806746;28;98898;-62
2021/03/28 00:18:32;;;;;;;1.08;0.35;;;;;;;8.99;66.06;101897.94;4824067;28;98148;-60
2021/03/28 00:21:21;;;;;;;2.05;0.47;;;;;;;8.98;65.95;101901.69;4806684;28;97638;-60
2021/03/28 00:24:32;;;;;;;1.17;0.50;;;;;;;8.95;66.27;101909.38;4807245;28;98246;-62
2021/03/28 00:27:19;;;;;;;1.73;0.57;;;;;;;8.95;66.13;101904.00;4785583;28;98521;-60
2021/03/28 00:29:56;;;;;;;1.80;0.60;;;;;;;8.96;65.96;101901.09;4771009;29;98160;-60
2021/03/28 00:32:44;;;;;;;1.58;0.40;;;;;;;8.92;66.07;101907.97;4810716;28;98020;-62
2021/03/28 00:35:16;;;;;;;1.92;0.50;;;;;;;8.94;66.46;101905.88;4791937;28;98550;-62
2021/03/28 00:37:43;;;;;;;2.45;0.60;;;;;;;8.95;66.62;101898.63;4822689;28;98836;-62
2021/03/28 00:40:09;;;;;;;1.50;0.60;;;;;;;8.94;66.38;101899.66;4823634;28;101678;-60
2021/03/28 00:42:37;;;;;;;1.90;0.50;;;;;;;8.91;66.81;101903.63;4824049;28;97879;-63
2021/03/28 00:45:42;;;;;;;1.70;0.50;;;;;;;8.90;66.58;101904.66;4821527;28;104825;-60
2021/03/28 00:48:28;;;;;;;2.83;0.57;;;;;;;8.89;66.34;101904.91;4823552;28;99136;-60
2021/03/28 00:51:20;;;;;;;1.10;0.50;;;;;;;8.90;66.43;101901.97;4822834;28;98795;-62
2021/03/28 00:53:54;;;;;;;1.45;0.63;;;;;;;8.88;66.42;101906.75;4822919;28;97873;-62
2021/03/28 00:56:45;;;;;;;1.60;0.55;;;;;;;8.86;66.77;101903.47;4821522;28;98373;-62
2021/03/28 00:59:36;;;;;;;2.92;0.80;;;;;;;8.87;66.67;101905.09;4806729;28;103878;-62
2021/03/28 01:02:32;;;;;;;2.33;0.60;;;;;;;8.87;66.29;101898.91;4808831;28;98363;-60
2021/03/28 01:05:00;;;;;;;2.17;0.80;;;;;;;8.87;66.79;101901.59;4823156;28;97643;-62
2021/03/28 01:07:32;;;;;;;2.08;0.60;;;;;;;8.87;66.77;101905.09;4823837;28;99301;-60
2021/03/28 01:10:22;;;;;;;1.83;0.73;;;;;;;8.84;66.13;101906.38;4825432;28;99279;-60
2021/03/28 01:13:25;;;;;;;2.83;0.70;;;;;;;8.85;66.52;101902.66;4826869;28;97902;-62
2021/03/28 01:16:09;;;;;;;2.10;0.60;;;;;;;8.82;66.84;101908.47;4825839;28;97986;-62
2021/03/28 01:18:40;;;;;;;2.42;0.80;;;;;;;8.80;66.32;101907.03;4825777;28;98295;-60
2021/03/28 01:22:01;;;;;;;2.58;0.70;;;;;;;8.75;66.86;101912.25;4809328;28;98446;-62
2021/03/28 01:24:51;;;;;;;2.08;0.70;;;;;;;8.72;66.84;101913.50;4824899;28;98392;-60
2021/03/28 01:27:29;;;;;;;2.45;0.77;;;;;;;8.72;66.62;101910.81;4824847;28;98227;-62
2021/03/28 01:30:06;;;;;;;2.35;0.85;;;;;;;8.73;67.18;101914.34;4824188;28;98573;-62
2021/03/28 01:32:45;;;;;;;2.20;0.90;;;;;;;8.70;66.74;101909.41;4825685;28;98064;-62
2021/03/28 01:35:12;;;;;;;3.72;0.75;;;;;;;8.68;66.84;101906.09;4822677;28;120003;-60
2021/03/28 01:38:03;;;;;;;3.72;0.82;;;;;;;8.64;67.18;101905.72;4825650;28;97619;-62
2021/03/28 01:40:44;;;;;;;1.88;0.75;;;;;;;8.63;66.47;101905.94;4823763;28;111472;-62
2021/03/28 01:43:34;;;;;;;2.33;0.80;;;;;;;8.60;66.95;101917.94;4809672;28;99086;-63
2021/03/28 01:47:00;;;;;;;1.98;0.75;;;;;;;8.58;66.60;101918.19;4824161;28;101459;-62
2021/03/28 01:49:57;;;;;;;2.20;0.70;;;;;;;8.56;67.00;101917.56;4803481;29;97986;-60
2021/03/28 01:52:33;;;;;;;2.35;0.80;;;;;;;8.56;67.24;101917.56;4787979;28;98666;-60
2021/03/28 01:55:39;;;;;;;2.22;0.90;;;;;;;8.52;66.91;101912.84;4817879;28;98151;-62
2021/03/28 01:58:29;;;;;;;2.55;0.82;;;;;;;8.51;66.80;101916.59;4796141;28;97981;-62
2021/03/28 02:01:19;;;;;;;2.00;0.70;;;;;;;8.49;66.96;101915.97;4825938;28;98161;-62
2021/03/28 02:04:15;;;;;;;3.22;0.90;;;;;;;8.47;66.59;101910.81;4823697;28;98321;-62
2021/03/28 02:06:41;;;;;;;2.45;0.90;;;;;;;8.49;66.89;101915.97;4820913;28;98659;-62
2021/03/28 02:09:30;;;;;;;2.65;0.90;;;;;;;8.48;67.23;101915.13;4826010;28;97862;-62
2021/03/28 02:12:12;;;;;;;2.10;0.88;;;;;;;8.47;66.73;101915.38;4825165;28;98127;-60
2021/03/28 02:14:46;;;;;;;2.90;1.03;;;;;;;8.42;66.81;101904.47;4807540;28;103706;-62
2021/03/28 02:17:47;;;;;;;2.78;1.08;;;;;;;8.44;66.97;101913.94;4823948;28;99498;-60
2021/03/28 02:20:32;;;;;;;3.05;0.93;;;;;;;8.39;66.66;101903.03;4803016;28;98184;-63
2021/03/28 02:23:17;;;;;;;3.20;1.10;;;;;;;8.41;66.99;101909.03;4824209;28;98025;-60
2021/03/28 02:26:04;;;;;;;2.67;0.82;;;;;;;8.35;67.13;101899.91;4823687;28;108469;-59
2021/03/28 02:29:06;;;;;;;2.35;1.10;;;;;;;8.35;66.98;101909.84;4809714;28;116687;-60
2021/03/28 02:32:15;;;;;;;3.03;1.00;;;;;;;8.32;66.90;101907.59;4812325;28;98057;-60
2021/03/28 02:35:10;;;;;;;2.10;1.05;;;;;;;8.30;66.98;101902.44;4823752;28;98499;-62
2021/03/28 02:37:54;;;;;;;1.98;0.82;;;;;;;8.28;66.81;101909.88;4826381;28;98514;-62
2021/03/28 02:41:02;;;;;;;3.35;1.00;;;;;;;8.27;66.85;101904.75;4823162;28;102772;-60
2021/03/28 02:44:07;;;;;;;1.90;0.90;;;;;;;8.22;66.94;101916.13;4824087;28;98115;-62
2021/03/28 02:47:02;;;;;;;2.90;1.17;;;;;;;8.20;66.91;101914.69;4806173;28;97943;-62
2021/03/28 02:49:44;;;;;;;2.80;0.98;;;;;;;8.20;66.68;101915.50;4791828;28;98025;-60
2021/03/28 02:52:36;;;;;;;2.20;1.00;;;;;;;8.21;66.87;101911.78;4824343;28;98285;-60
2021/03/28 02:55:45;;;;;;;2.28;0.90;;;;;;;8.16;67.06;101917.00;4822896;28;98433;-62
2021/03/28 02:58:51;;;;;;;2.35;1.00;;;;;;;8.14;67.11;101916.41;4825814;28;97808;-62
2021/03/28 03:02:03;;;;;;;2.90;0.90;;;;;;;8.23;66.76;101916.97;4805916;28;98482;-60
2021/03/28 03:04:43;;;;;;;3.72;1.00;;;;;;;8.30;66.57;101926.63;4833884;28;98146;-62
2021/03/28 03:07:27;;;;;;;2.35;0.90;;;;;;;8.34;66.33;101914.41;4823504;28;97928;-60
2021/03/28 03:10:11;;;;;;;2.13;1.00;;;;;;;8.38;65.97;101919.38;4823401;28;97795;-60
2021/03/28 03:13:21;;;;;;;2.60;0.95;;;;;;;8.38;65.70;101920.19;4825506;28;104048;-60
2021/03/28 03:15:53;;;;;;;2.17;0.88;;;;;;;8.39;65.76;101915.63;4801283;28;98555;-62
2021/03/28 03:18:43;;;;;;;2.87;0.90;;;;;;;8.41;65.58;101922.47;4808266;28;98170;-60
2021/03/28 03:21:43;;;;;;;2.47;1.02;;;;;;;8.38;65.88;101924.75;4824450;28;97872;-62
2021/03/28 03:24:53;;;;;;;2.28;0.93;;;;;;;8.35;66.00;101928.66;4811596;28;98014;-62
2021/03/28 03:27:40;;;;;;;2.63;1.20;;;;;;;8.31;65.94;101930.13;4807604;28;99086;-62
2021/03/28 03:30:08;;;;;;;2.28;0.93;;;;;;;8.32;66.15;101934.44;4808436;28;98445;-62
2021/03/28 03:33:27;;;;;;;2.03;0.90;;;;;;;8.32;65.73;101935.28;4820962;28;108420;-60
2021/03/28 03:36:35;;;;;;;2.83;0.77;;;;;;;8.28;65.92;101944.00;4822229;28;118293;-62
2021/03/28 03:39:29;;;;;;;2.13;0.95;;;;;;;8.27;65.84;101953.09;4812603;28;98521;-60
2021/03/28 03:42:26;;;;;;;1.95;0.98;;;;;;;8.20;65.91;101958.50;4823598;28;98313;-60
2021/03/28 03:45:11;;;;;;;2.28;1.10;;;;;;;8.21;65.96;101964.69;4810379;28;97993;-62
2021/03/28 03:47:40;;;;;;;3.00;1.00;;;;;;;8.20;66.12;101960.38;4825011;28;98338;-62
2021/03/28 03:50:22;;;;;;;2.35;0.90;;;;;;;8.15;65.40;101957.50;4807234;28;98414;-60
2021/03/28 03:53:19;;;;;;;2.93;1.10;;;;;;;8.11;66.06;101966.00;4807645;28;118515;-62
2021/03/28 03:56:02;;;;;;;2.78;1.00;;;;;;;8.08;65.96;101966.41;4808478;28;105793;-62
2021/03/28 03:58:43;;;;;;;2.70;1.17;;;;;;;8.04;66.26;101973.25;4808154;28;99349;-60
2021/03/28 04:01:45;;;;;;;1.77;1.08;;;;;;;8.01;65.79;101964.78;4808702;28;110997;-60
2021/03/28 04:04:26;;;;;;;1.92;0.95;;;;;;;8.02;66.13;101971.84;4834092;28;98259;-62
2021/03/28 04:07:26;;;;;;;2.80;1.00;;;;;;;7.99;65.89;101967.69;4822641;28;98147;-60
2021/03/28 04:10:02;;;;;;;2.17;0.95;;;;;;;7.96;66.14;101973.50;4822513;28;98610;-60
2021/03/28 04:12:52;;;;;;;2.33;1.00;;;;;;;7.96;66.05;101975.34;4821821;28;98419;-60
2021/03/28 04:15:59;;;;;;;3.47;1.02;;;;;;;7.92;65.93;101980.34;4807006;28;98147;-62
2021/03/28 04:18:49;;;;;;;2.53;1.10;;;;;;;7.91;66.18;101981.38;4811010;28;97979;-62
2021/03/28 04:21:47;;;;;;;2.63;1.00;;;;;;;7.88;66.28;101984.47;4822894;28;98005;-60
2021/03/28 04:24:22;;;;;;;2.22;1.23;;;;;;;7.86;66.26;101984.69;4821867;28;112839;-60
2021/03/28 04:27:25;;;;;;;2.28;1.10;;;;;;;7.83;66.04;101985.13;4821363;28;97914;-62
2021/03/28 04:29:51;;;;;;;2.40;1.00;;;;;;;7.82;66.12;101983.47;4822532;28;98150;-60
2021/03/28 04:32:57;;;;;;;3.28;1.30;;;;;;;7.80;66.43;101992.78;4806253;28;119123;-62
2021/03/28 04:35:43;;;;;;;2.72;1.02;;;;;;;7.80;66.56;101993.59;4822305;28;98454;-60
2021/03/28 04:38:36;;;;;;;2.40;1.15;;;;;;;7.77;66.19;101990.50;4822413;28;98553;-60
2021/03/28 04:41:32;;;;;;;2.63;1.20;;;;;;;7.74;66.40;101983.72;4821940;28;98125;-62
2021/03/28 04:44:27;;;;;;;3.30;1.10;;;;;;;7.77;66.20;101987.81;4823650;28;99094;-60
2021/03/28 04:46:59;;;;;;;2.70;1.20;;;;;;;7.77;66.12;101985.13;4821963;28;98377;-62
2021/03/28 04:50:11;;;;;;;3.05;1.27;;;;;;;7.74;66.01;101988.22;4824033;28;97983;-60
2021/03/28 04:53:08;;;;;;;2.00;1.15;;;;;;;7.74;66.29;101996.28;4825389;28;98086;-60
2021/03/28 04:56:14;;;;;;;2.92;1.23;;;;;;;7.71;66.25;101996.72;4823564;28;98145;-60
2021/03/28 04:59:11;;;;;;;4.10;1.17;;;;;;;7.71;66.07;102002.91;4823419;28;98312;-62
2021/03/28 05:02:16;;;;;;;2.03;1.15;;;;;;;7.68;66.29;102000.66;4823998;28;97791;-62
2021/03/28 05:05:00;;;;;;;2.90;1.20;;;;;;;7.69;66.04;102004.97;4822810;28;98028;-60
2021/03/28 05:08:17;;;;;;;2.28;1.27;;;;;;;7.71;65.98;102010.16;4823301;28;98364;-62
2021/03/28 05:11:38;;;;;;;2.47;1.20;;;;;;;7.72;65.91;102006.44;4821594;28;99387;-62
2021/03/28 05:14:54;;;;;;;2.33;1.17;;;;;;;7.69;65.95;101996.09;4822590;28;98761;-62
2021/03/28 05:17:45;;;;;;;2.25;1.10;;;;;;;7.73;66.01;102000.84;4823863;28;97731;-63
2021/03/28 05:20:54;;;;;;;2.15;1.13;;;;;;;7.72;65.97;102003.75;4823239;28;98928;-60
2021/03/28 05:23:55;;;;;;;2.50;1.30;;;;;;;7.75;66.23;102000.66;4809635;28;99193;-62
2021/03/28 05:26:55;;;;;;;2.45;1.30;;;;;;;7.76;66.29;102008.47;4820853;28;97799;-62
2021/03/28 05:29:58;;;;;;;2.03;1.35;;;;;;;7.80;66.20;101993.59;4821652;28;97934;-60
2021/03/28 05:32:46;;;;;;;3.23;1.37;;;;;;;7.84;66.10;101997.50;4821627;28;99538;-60
2021/03/28 05:35:49;;;;;;;2.05;1.45;;;;;;;7.87;65.96;101998.94;4822319;28;99028;-62
2021/03/28 05:39:04;;;;;;;3.17;1.40;;;;;;;7.96;66.02;102005.72;4821677;28;97984;-60
2021/03/28 05:41:37;;;;;;;2.72;1.20;;;;;;;8.02;65.88;102001.38;4790552;29;97867;-62
2021/03/28 05:45:00;;;;;;;3.50;1.38;;;;;;;8.07;65.81;102004.25;4805097;28;98133;-62
2021/03/28 05:47:54;;;;;;;2.47;1.45;;;;;;;8.14;65.88;102007.72;4823075;28;97698;-60
2021/03/28 05:50:30;;;;;;;;;;;;;;;8.17;65.60;102006.44;4821107;28;98164;-60
2021/03/28 05:53:43;;;;;;;2.38;1.58;;;;;;;8.27;65.81;102001.44;4821178;28;99350;-61
2021/03/28 05:57:12;;;;;;;2.30;1.33;;;;;;;8.38;65.76;101997.31;4822242;28;99020;-62
2021/03/28 06:00:17;;;;;;;3.85;1.70;;;;;;;8.44;65.90;102007.16;4810422;28;119211;-60
2021/03/28 06:03:08;;;;;;;2.75;1.70;;;;;;;8.45;66.23;102001.59;4825956;28;97935;-62
2021/03/28 06:06:26;;;;;;;2.20;1.48;;;;;;;8.58;66.00;102006.06;4807027;29;97798;-62
2021/03/28 06:09:22;;;;;;;2.13;1.33;;;;;;;8.69;65.40;101997.31;4803020;28;98282;-60
2021/03/28 06:12:19;;;;;;;2.90;1.42;;;;;;;8.81;65.95;101992.06;4824241;28;98586;-60
2021/03/28 06:15:14;;;;;;;2.42;1.60;;;;;;;8.95;65.74;101998.94;4825874;28;97980;-62
2021/03/28 06:18:31;;;;;;;3.25;1.52;;;;;;;9.11;65.04;102000.25;4827247;28;98057;-60
2021/03/28 06:21:28;;;;;;;2.25;1.35;;;;;;;9.25;65.17;102000.97;4809556;28;98634;-62
2021/03/28 06:24:34;;;;;;;3.03;1.85;;;;;;;9.42;65.26;102003.91;4823163;28;110522;-60
2021/03/28 06:27:21;;;;;;;2.33;1.52;;;;;;;9.62;64.06;102001.03;4810179;28;98224;-60
2021/03/28 06:29:50;;;;;;;3.47;2.20;;;;;;;9.74;65.11;102007.31;4824096;28;97958;-62
2021/03/28 06:33:00;;;;;;;3.92;2.20;;;;;;;9.90;64.26;102006.69;4825662;28;97795;-62
2021/03/28 06:36:12;;;;;;;4.10;2.25;;;;;;;9.99;63.88;102002.66;4823500;28;98418;-62
2021/03/28 06:39:37;;;;;;;4.47;2.50;;;;;;;10.13;63.48;102006.00;4844352;28;97907;-62
2021/03/28 06:42:28;;;;;;;5.45;2.72;;;;;;;10.17;64.26;102006.38;4805546;29;97706;-62
2021/03/28 06:45:29;;;;;;;5.35;2.63;;;;;;;10.17;64.48;102006.38;4815322;28;98529;-62
2021/03/28 06:48:26;;;;;;;4.78;2.53;;;;;;;10.22;64.38;102003.84;4823308;28;98707;-59
2021/03/28 06:51:23;;;;;;;4.72;2.55;;;;;;;10.28;64.30;102002.94;4823916;28;97940;-60
2021/03/28 06:54:36;;;;;;;5.20;2.35;;;;;;;10.45;64.70;102005.81;4825897;28;97861;-60
2021/03/28 06:57:23;;;;;;;;;;;;;;;10.71;63.65;102008.13;4823691;28;98407;-60
2021/03/28 06:59:53;;;;;;;6.30;2.55;;;;;;;10.90;63.56;102003.47;4825592;28;98404;-60
2021/03/28 07:02:43;;;;;;;4.45;2.15;;;;;;;11.10;61.91;102013.13;4822240;28;110701;-62
2021/03/28 07:05:36;;;;;;;4.70;2.10;;;;;;;11.32;61.81;102003.41;4825271;28;97836;-62
2021/03/28 07:08:14;;;;;;;4.78;2.42;;;;;;;11.45;61.01;102005.84;4822800;28;105698;-60
2021/03/28 07:11:16;;;;;;;4.78;2.28;;;;;;;11.62;60.90;102000.53;4824310;28;98781;-62
2021/03/28 07:14:29;;;;;;;3.55;1.98;;;;;;;11.72;61.16;102006.19;4823060;28;98494;-62
2021/03/28 07:17:13;;;;;;;4.60;2.30;;;;;;;11.82;61.98;102007.44;4825362;28;97866;-60
2021/03/28 07:20:18;;;;;;;4.13;1.98;;;;;;;12.01;61.05;102009.78;4824616;28;98887;-62
2021/03/28 07:23:42;;;;;;;5.25;2.17;;;;;;;12.22;59.73;101996.66;4823064;28;98393;-60
2021/03/28 07:26:44;;;;;;;4.28;2.35;;;;;;;12.45;59.91;102001.94;4822886;28;98088;-63
2021/03/28 07:29:57;;;;;;;3.60;2.13;;;;;;;12.74;57.62;101999.22;4823291;28;97987;-62
2021/03/28 07:33:13;;;;;;;3.88;2.30;;;;;;;13.01;57.03;101999.41;4823410;28;98297;-62
2021/03/28 07:36:24;;;;;;;5.90;2.40;;;;;;;13.07;57.18;101992.19;4822747;28;98499;-63
2021/03/28 07:39:43;;;;;;;5.03;2.38;;;;;;;13.19;55.97;101988.31;4818147;28;98627;-63
2021/03/28 07:42:24;;;;;;;5.28;1.92;;;;;;;13.42;55.15;101987.31;4806979;29;98075;-60
2021/03/28 07:45:42;;;;;;;4.03;2.10;;;;;;;13.72;53.93;101986.91;4821796;28;98419;-60
2021/03/28 07:48:55;;;;;;;4.07;2.00;;;;;;;13.84;53.31;101988.69;4825211;28;98655;-62
2021/03/28 07:51:52;;;;;;;3.10;1.70;;;;;;;13.84;52.76;101991.41;4824476;28;97993;-60
2021/03/28 07:54:27;;;;;;;3.25;2.20;;;;;;;13.96;52.59;101995.59;4824938;28;98060;-60
2021/03/28 07:57:26;;;;;;;3.75;1.63;;;;;;;14.20;52.38;101998.03;4823957;28;98135;-63
2021/03/28 08:00:25;;;;;;;3.60;1.75;;;;;;;14.36;51.26;101993.59;4808429;28;99099;-63
2021/03/28 08:03:18;;;;;;;3.65;2.00;;;;;;;14.59;51.76;101997.94;4808973;28;98175;-61
2021/03/28 08:06:28;;;;;;;4.00;1.83;;;;;;;14.84;50.70;102000.03;4822646;28;98256;-61
2021/03/28 08:09:18;;;;;;;4.63;1.60;;;;;;;15.12;51.75;101997.00;4823225;28;99396;-63
2021/03/28 08:12:32;;;;;;;4.45;1.73;;;;;;;15.67;51.14;102001.16;4824261;28;97835;-60
2021/03/28 08:15:46;;;;;;;3.58;1.48;;;;;;;16.24;52.41;101990.50;4816602;28;98454;-63
2021/03/28 08:18:12;;;;;;;4.28;1.45;;;;;;;16.71;54.13;101998.47;4807712;28;106662;-61
2021/03/28 08:21:18;;;;;;;3.10;1.45;;;;;;;17.01;53.34;102005.00;4823808;28;98506;-64
2021/03/28 08:24:31;;;;;;;4.43;1.60;;;;;;;17.50;52.63;102002.50;4824355;28;98331;-64
2021/03/28 08:27:04;;;;;;;;;;;;;;;17.75;52.52;101998.88;4822665;28;97980;-61
2021/03/28 08:29:42;;;;;;;2.88;1.17;;;;;;;16.66;55.50;102015.63;4824279;28;102361;-63
2021/03/28 08:32:34;;;;;;;4.32;1.70;;;;;;;16.29;56.04;102004.91;4822241;28;98051;-60
2021/03/28 08:35:31;;;;;;;4.90;1.50;;;;;;;16.08;55.92;102017.66;4822682;28;98192;-61
2021/03/28 08:38:25;;;;;;;3.25;1.40;;;;;;;15.82;55.73;102019.44;4821854;28;97949;-61
2021/03/28 08:41:44;;;;;;;3.05;1.33;;;;;;;15.80;55.31;102016.19;4821425;28;98679;-63
2021/03/28 08:45:01;;;;;;;2.65;1.33;;;;;;;15.85;57.96;102018.09;4849560;28;98066;-60
2021/03/28 08:47:51;;;;;;;3.15;1.45;;;;;;;15.56;56.29;102014.94;4817059;28;98490;-63
2021/03/28 08:50:44;;;;;;;5.18;1.67;;;;;;;15.38;55.88;102025.16;4821000;28;98337;-61
2021/03/28 08:54:03;;;;;;;3.13;1.50;;;;;;;15.32;54.57;102017.22;4808544;28;97769;-61
2021/03/28 08:56:55;;;;;;;4.50;1.55;;;;;;;16.03;58.59;102016.81;4808138;28;99144;-61
2021/03/28 08:59:51;;;;;;;3.47;1.15;;;;;;;16.63;57.25;102016.16;4821364;28;99586;-61
2021/03/28 09:02:55;;;;;;;3.00;1.08;;;;;;;17.77;56.89;102013.06;4794393;28;97783;-61
2021/03/28 09:05:52;;;;;;;3.47;1.05;;;;;;;18.48;56.59;102006.41;4822088;28;98253;-63
2021/03/28 09:08:34;;;;;;;2.88;1.30;;;;;;;18.57;56.77;102009.34;4806313;28;98397;-61
2021/03/28 09:11:28;;;;;;;3.33;1.20;;;;;;;19.46;55.38;102011.88;4820104;28;98781;-63
2021/03/28 09:14:22;;;;;;;3.45;1.17;;;;;;;20.03;54.88;102016.41;4832128;28;98219;-64
2021/03/28 09:17:15;;;;;;;2.72;1.00;;;;;;;20.11;55.22;102020.41;4837625;28;98067;-61
2021/03/28 09:19:56;;;;;;;2.45;0.90;;;;;;;20.22;55.51;102005.47;4826436;28;98477;-61
2021/03/28 09:22:51;;;;;;;2.30;1.00;;;;;;;20.34;55.04;102005.84;4829680;28;98089;-60
2021/03/28 09:25:25;;;;;;;3.90;1.05;;;;;;;20.86;54.49;102019.59;4820381;28;98858;-61
2021/03/28 09:28:00;;;;;;;2.78;0.95;;;;;;;21.40;53.44;102011.81;4837653;28;97898;-64
2021/03/28 09:30:51;;;;;;;2.30;1.00;;;;;;;21.70;53.10;102013.16;4819601;28;99918;-61
2021/03/28 09:33:58;;;;;;;2.20;0.98;;;;;;;22.23;52.62;102016.16;4821497;28;98492;-64
2021/03/28 09:36:36;;;;;;;3.38;1.08;;;;;;;22.69;51.58;102012.34;4840130;28;98135;-61
2021/03/28 09:39:33;;;;;;;7.30;1.73;;;;;;;22.97;51.25;102010.28;4822112;28;98341;-62
2021/03/28 09:42:38;;;;;;;8.82;2.08;;;;;;;23.43;50.46;102000.81;4833229;28;99230;-64
2021/03/28 09:45:48;;;;;;;6.00;2.20;;;;;;;23.67;50.39;102005.13;4837935;28;98531;-61
2021/03/28 09:49:08;;;;;;;6.45;1.70;;;;;;;23.41;51.18;102005.81;4841224;28;97894;-61
2021/03/28 09:51:49;;;;;;;7.82;1.77;;;;;;;23.36;51.15;101994.94;4809891;28;98146;-61
2021/03/28 09:54:42;;;;;;;8.18;1.90;;;;;;;23.56;50.65;101993.56;4832001;28;98371;-64
2021/03/28 09:57:36;;;;;;;5.75;1.60;;;;;;;24.45;48.28;101981.28;4835427;28;98347;-64
2021/03/28 10:00:41;;;;;;;6.00;1.50;;;;;;;25.35;46.14;101990.63;4837673;28;98024;-64
2021/03/28 10:03:17;;;;;;;5.63;2.58;;;;;;;23.78;36.25;101981.69;4834177;28;98746;-61
2021/03/28 10:05:44;;;;;;;5.38;2.75;;;;;;;23.28;33.14;101998.47;4841291;28;98279;-64
2021/03/28 10:08:20;;;;;;;5.78;2.70;;;;;;;23.67;32.07;101989.44;4839769;28;98204;-62
2021/03/28 10:11:31;;;;;;;5.45;2.40;;;;;;;24.39;30.78;101988.06;4831704;28;98533;-62
2021/03/28 10:14:18;;;;;;;5.88;2.80;;;;;;;24.13;30.67;101992.72;4834052;28;97774;-64
2021/03/28 10:17:28;;;;;;;5.20;2.67;;;;;;;24.27;29.41;101990.66;4824778;28;99934;-64
2021/03/28 10:20:14;;;;;;;6.13;2.80;;;;;;;22.32;31.03;102004.44;4832237;28;98502;-64
2021/03/28 10:23:13;;;;;;;5.20;2.83;;;;;;;23.19;29.66;101989.38;4821728;28;98027;-65
2021/03/28 10:26:06;;;;;;;6.90;2.65;;;;;;;23.08;29.60;101988.03;4839218;28;98028;-64
2021/03/28 10:28:52;;;;;;;7.45;3.03;;;;;;;22.57;29.68;101992.84;4830525;28;98656;-61
2021/03/28 10:31:31;;;;;;;5.82;3.28;;;;;;;21.59;31.98;101998.03;4833940;28;98560;-64
2021/03/28 10:34:06;;;;;;;5.40;2.67;;;;;;;21.36;31.66;101997.91;4838106;28;98144;-61
2021/03/28 10:36:51;;;;;;;7.15;2.75;;;;;;;20.47;31.98;101993.31;4840758;28;98159;-64
2021/03/28 10:40:04;;;;;;;4.82;2.58;;;;;;;20.20;32.25;101993.19;4830449;28;98962;-61
2021/03/28 10:42:57;;;;;;;5.32;2.40;;;;;;;19.58;33.33;101988.50;4833937;28;98254;-64
2021/03/28 10:45:31;;;;;;;4.80;2.28;;;;;;;18.84;35.31;101984.31;4818287;28;98391;-61
2021/03/28 10:48:33;;;;;;;6.78;2.63;;;;;;;18.45;35.38;101984.31;4839340;28;97802;-64
2021/03/28 10:51:43;;;;;;;7.57;2.63;;;;;;;18.99;34.15;101958.78;4832562;28;97790;-64
2021/03/28 10:54:32;;;;;;;7.40;2.50;;;;;;;19.10;33.90;101963.88;4835946;28;98068;-61
2021/03/28 10:57:45;;;;;;;6.82;2.60;;;;;;;19.27;34.62;101962.59;4832107;28;97921;-64
2021/03/28 11:01:01;;;;;;;8.07;2.30;;;;;;;18.87;33.32;101956.44;4830566;28;97782;-64
2021/03/28 11:04:10;;;;;;;6.32;2.00;;;;;;;19.45;33.58;101961.00;4832210;28;98731;-61
2021/03/28 11:06:48;;;;;;;7.43;2.47;;;;;;;18.97;32.10;101960.97;4838880;28;97933;-61
2021/03/28 11:09:36;;;;;;;5.68;2.13;;;;;;;18.11;34.79;101963.25;4837085;28;98257;-64
2021/03/28 11:12:54;;;;;;;5.25;1.95;;;;;;;17.54;36.31;101986.41;4835365;28;97821;-61
2021/03/28 11:15:57;;;;;;;7.93;3.50;;;;;;;17.23;36.23;101983.75;4836804;28;99096;-64
2021/03/28 11:19:15;;;;;;;11.57;4.43;;;;;;;16.73;36.67;101984.56;4832279;28;98368;-64
2021/03/28 11:22:08;;;;;;;8.90;3.58;;;;;;;17.85;34.81;101973.50;4834276;28;98140;-61
2021/03/28 11:25:01;;;;;;;8.85;3.05;;;;;;;17.21;36.74;101976.94;4837477;28;97841;-63
2021/03/28 11:27:52;;;;;;;;;;;;;;;17.56;36.83;101967.84;4834331;28;98392;-62
2021/03/28 11:30:40;;;;;;;6.65;2.50;;;;;;;18.29;35.12;101951.69;4837877;28;98264;-64
2021/03/28 11:33:31;;;;;;;5.63;2.42;;;;;;;18.27;35.03;101950.31;4839135;28;97850;-61
2021/03/28 11:36:02;;;;;;;5.10;2.00;;;;;;;20.40;30.63;101942.81;4834983;28;98927;-65
2021/03/28 11:39:12;;;;;;;4.97;1.30;;;;;;;21.15;30.58;101933.59;4835473;28;98169;-64
2021/03/28 11:41:50;;;;;;;7.53;2.00;;;;;;;18.62;31.99;101932.84;4824206;28;120473;-65
2021/03/28 11:44:37;;;;;;;6.80;2.30;;;;;;;20.39;30.01;101920.06;4820178;28;98078;-62
2021/03/28 11:47:37;;;;;;;6.78;2.20;;;;;;;21.06;29.52;101917.00;4816447;28;97939;-65
2021/03/28 11:50:15;;;;;;;6.35;2.95;;;;;;;21.52;28.50;101924.34;4836495;28;98631;-61
2021/03/28 11:53:11;;;;;;;5.88;2.10;;;;;;;21.97;28.16;101922.56;4835843;28;98204;-65
2021/03/28 11:55:46;;;;;;;5.68;1.88;;;;;;;22.46;28.18;101918.09;4834346;28;98177;-64
2021/03/28 11:58:15;;;;;;;5.70;1.83;;;;;;;22.85;28.38;101929.50;4835965;28;98273;-61
2021/03/28 12:00:53;;;;;;;5.47;1.70;;;;;;;21.77;29.35;101926.56;4840346;28;98272;-61
2021/03/28 12:03:19;;;;;;;6.03;1.90;;;;;;;22.69;28.87;101923.59;4819059;28;98286;-61
2021/03/28 12:05:58;;;;;;;6.68;2.00;;;;;;;22.78;28.58;101916.19;4838095;28;97887;-62
2021/03/28 12:08:28;;;;;;;5.50;1.83;;;;;;;22.40;27.17;101922.13;4831302;28;98528;-61
2021/03/28 12:10:57;;;;;;;5.57;1.70;;;;;;;21.73;28.98;101933.78;4820222;28;98383;-64
2021/03/28 12:13:45;;;;;;;7.25;2.15;;;;;;;22.55;27.43;101929.16;4836248;28;98407;-64
2021/03/28 12:16:12;;;;;;;4.68;1.70;;;;;;;22.85;27.48;101924.81;4832239;28;122894;-64
2021/03/28 12:18:50;;;;;;;6.05;1.90;;;;;;;21.86;27.10;101917.59;4838463;28;97800;-64
2021/03/28 12:21:46;;;;;;;5.05;1.95;;;;;;;20.48;29.64;101942.13;4814051;28;100005;-63
2021/03/28 12:24:12;;;;;;;5.18;1.38;;;;;;;21.33;31.24;101935.44;4838568;28;98805;-61
2021/03/28 12:26:38;;;;;;;4.15;1.20;;;;;;;21.18;33.08;101938.44;4815625;28;98181;-61
2021/03/28 12:29:23;;;;;;;5.50;1.33;;;;;;;20.94;33.31;101942.16;4839915;28;98321;-63
2021/03/28 12:31:51;;;;;;;4.30;1.10;;;;;;;21.04;35.39;101932.97;4834514;28;98886;-61
2021/03/28 12:34:37;;;;;;;4.95;1.25;;;;;;;21.11;37.45;101918.88;4838179;28;98766;-61
2021/03/28 12:37:09;;;;;;;4.45;1.25;;;;;;;21.06;37.08;101922.50;4817583;28;97978;-64
2021/03/28 12:39:41;;;;;;;3.67;1.02;;;;;;;21.21;37.67;101915.91;4839679;28;98215;-61
2021/03/28 12:42:33;;;;;;;2.78;0.90;;;;;;;22.57;36.08;101895.88;4835683;28;98471;-64
2021/03/28 12:45:08;;;;;;;3.20;0.97;;;;;;;22.72;37.28;101901.78;4837233;28;98750;-63
2021/03/28 12:47:48;;;;;;;3.70;0.88;;;;;;;22.51;38.95;101906.19;4840674;28;98370;-64
2021/03/28 12:50:14;;;;;;;4.47;1.00;;;;;;;22.29;39.39;101910.56;4829172;28;98026;-61
2021/03/28 12:53:13;;;;;;;2.30;0.60;;;;;;;22.18;39.58;101902.88;4839097;28;98503;-63
2021/03/28 12:55:45;;;;;;;3.67;0.90;;;;;;;22.15;40.35;101904.31;4834976;28;98509;-63
2021/03/28 12:58:13;;;;;;;2.85;0.73;;;;;;;22.28;40.24;101899.88;4815631;28;98216;-63
2021/03/28 13:01:15;;;;;;;3.42;0.70;;;;;;;22.13;41.42;101892.00;4819251;28;97854;-61
2021/03/28 13:03:44;;;;;;;3.55;0.93;;;;;;;21.86;42.21;101895.66;4811432;28;107383;-64
2021/03/28 13:06:30;;;;;;;3.90;0.85;;;;;;;21.54;43.18;101894.69;4823309;28;100460;-61
2021/03/28 13:09:09;;;;;;;3.25;0.80;;;;;;;21.38;43.75;101876.91;4820526;28;98249;-61
2021/03/28 13:11:48;;;;;;;2.72;0.90;;;;;;;21.39;43.32;101875.81;4826764;28;97954;-63
2021/03/28 13:14:40;;;;;;;2.33;0.80;;;;;;;21.73;42.75;101872.59;4826499;28;98367;-61
2021/03/28 13:17:13;;;;;;;3.97;0.90;;;;;;;21.96;42.73;101871.50;4822625;28;98540;-63
2021/03/28 13:19:41;;;;;;;2.85;0.77;;;;;;;22.34;43.20;101868.44;4827301;28;98427;-64
2021/03/28 13:22:36;;;;;;;4.60;0.77;;;;;;;22.79;42.97;101858.19;4809305;28;100458;-61